createdAt,value
2022-09-06T00:01:25.753Z,34.95
2022-09-06T00:03:52.336Z,34.89
2022-09-06T00:06:20.242Z,34.77
2022-09-06T00:08:47.718Z,34.39
2022-09-06T00:11:15.579Z,34.41
2022-09-06T00:13:42.770Z,34.56
2022-09-06T00:16:20.923Z,35.18
2022-09-06T00:18:47.859Z,34.72
2022-09-06T00:21:17.502Z,34.94
2022-09-06T00:23:44.270Z,35.21
2022-09-06T00:26:10.910Z,34.88
2022-09-06T00:28:38.304Z,34.46
2022-09-06T00:31:16.877Z,34.84
2022-09-06T00:33:43.917Z,35.75
2022-09-06T00:36:11.533Z,35.81
2022-09-06T00:38:39.164Z,35.48
2022-09-06T00:41:07.606Z,35.29
2022-09-06T00:43:34.385Z,35.34
2022-09-06T00:46:01.472Z,35.29
2022-09-06T00:48:28.254Z,35.25
2022-09-06T00:50:59.284Z,35.25
2022-09-06T00:53:26.053Z,35.67
2022-09-06T00:55:52.941Z,35.13
2022-09-06T00:58:19.762Z,35.27
2022-09-06T01:00:46.505Z,35.22
2022-09-06T01:03:13.199Z,35.36
2022-09-06T01:05:58.642Z,35.43
2022-09-06T01:08:55.538Z,35.38
2022-09-06T01:11:25.192Z,35.34
2022-09-06T01:13:57.147Z,35.14
2022-09-06T01:16:40.472Z,34.95
2022-09-06T01:19:36.460Z,35.13
2022-09-06T01:22:29.267Z,35.41
2022-09-06T01:25:27.181Z,35.45
2022-09-06T01:27:59.675Z,35.57
2022-09-06T01:30:26.610Z,35.65
2022-09-06T01:32:56.773Z,35.48
2022-09-06T01:35:26.394Z,35.43
2022-09-06T01:37:53.825Z,35.45
2022-09-06T01:40:20.916Z,35.95
2022-09-06T01:42:48.592Z,35.95
2022-09-06T01:45:19.120Z,35.59
2022-09-06T01:48:07.071Z,35.94
2022-09-06T01:50:45.618Z,35.84
2022-09-06T01:53:24.283Z,39.63
2022-09-06T01:56:12.573Z,41.78
2022-09-06T01:59:15.465Z,40.03
2022-09-06T02:02:01.213Z,39.30
2022-09-06T02:04:57.178Z,38.46
2022-09-06T02:07:26.562Z,38.43
2022-09-06T02:10:15.337Z,37.95
2022-09-06T02:12:43.714Z,38.64
2022-09-06T02:15:15.367Z,37.68
2022-09-06T02:17:50.377Z,37.85
2022-09-06T02:20:20.889Z,37.56
2022-09-06T02:22:48.127Z,36.98
2022-09-06T02:25:23.748Z,36.74
2022-09-06T02:27:50.437Z,36.75
2022-09-06T02:30:17.131Z,36.44
2022-09-06T02:32:52.022Z,36.12
2022-09-06T02:35:18.575Z,36.22
2022-09-06T02:37:45.519Z,35.31
2022-09-06T02:40:12.166Z,35.70
2022-09-06T02:42:40.284Z,35.86
2022-09-06T02:45:07.216Z,36.35
2022-09-06T02:47:33.797Z,37.02
2022-09-06T02:50:00.829Z,37.66
2022-09-06T02:52:27.419Z,37.27
2022-09-06T02:54:54.153Z,37.33
2022-09-06T02:57:20.746Z,37.36
2022-09-06T02:59:47.250Z,37.57
2022-09-06T03:02:14.860Z,37.26
2022-09-06T03:04:41.465Z,37.61
2022-09-06T03:07:08.085Z,38.24
2022-09-06T03:09:35.112Z,38.71
2022-09-06T03:12:02.084Z,37.05
2022-09-06T03:14:28.590Z,36.63
2022-09-06T03:16:55.387Z,37.39
2022-09-06T03:19:22.403Z,37.30
2022-09-06T03:21:48.889Z,37.23
2022-09-06T03:24:15.381Z,37.07
2022-09-06T03:26:41.906Z,36.74
2022-09-06T03:29:08.406Z,36.88
2022-09-06T03:31:34.932Z,37.36
2022-09-06T03:34:01.506Z,37.62
2022-09-06T03:36:28.009Z,36.96
2022-09-06T03:38:54.962Z,36.97
2022-09-06T03:41:21.500Z,37.14
2022-09-06T03:43:48.076Z,37.49
2022-09-06T03:46:14.753Z,37.52
2022-09-06T03:48:41.332Z,37.15
2022-09-06T03:51:07.986Z,37.32
2022-09-06T03:53:34.490Z,36.83
2022-09-06T03:56:01.504Z,36.77
2022-09-06T03:58:32.095Z,37.00
2022-09-06T04:01:08.236Z,36.87
2022-09-06T04:03:35.953Z,37.25
2022-09-06T04:06:03.475Z,37.09
2022-09-06T04:08:30.398Z,37.02
2022-09-06T04:10:57.684Z,36.74
2022-09-06T04:13:25.292Z,38.08
2022-09-06T04:15:52.622Z,38.34
2022-09-06T04:18:20.273Z,37.86
2022-09-06T04:20:51.648Z,39.68
2022-09-06T04:23:18.900Z,38.42
2022-09-06T04:25:47.265Z,38.28
2022-09-06T04:28:13.900Z,37.97
2022-09-06T04:30:40.393Z,37.95
2022-09-06T04:33:06.886Z,37.60
2022-09-06T04:35:33.425Z,37.62
2022-09-06T04:38:04.015Z,37.50
2022-09-06T04:40:30.850Z,37.71
2022-09-06T04:42:57.347Z,37.89
2022-09-06T04:45:24.897Z,37.63
2022-09-06T04:47:51.587Z,37.79
2022-09-06T04:50:18.249Z,37.36
2022-09-06T04:52:44.776Z,37.44
2022-09-06T04:55:11.537Z,37.80
2022-09-06T04:57:42.047Z,38.12
2022-09-06T05:00:11.745Z,39.12
2022-09-06T05:02:38.391Z,39.00
2022-09-06T05:05:05.826Z,38.53
2022-09-06T05:07:32.385Z,38.64
2022-09-06T05:09:58.912Z,38.39
2022-09-06T05:12:25.434Z,38.57
2022-09-06T05:14:51.914Z,38.84
2022-09-06T05:17:18.474Z,38.80
2022-09-06T05:19:45.051Z,39.62
2022-09-06T05:22:12.238Z,39.10
2022-09-06T05:24:38.774Z,40.59
2022-09-06T05:27:07.403Z,40.15
2022-09-06T05:29:33.912Z,39.99
2022-09-06T05:32:00.490Z,41.21
2022-09-06T05:34:27.022Z,41.42
2022-09-06T05:36:53.547Z,41.92
2022-09-06T05:39:21.269Z,43.14
2022-09-06T05:41:48.074Z,43.96
2022-09-06T05:44:14.865Z,44.11
2022-09-06T05:46:43.037Z,43.98
2022-09-06T05:49:10.448Z,43.60
2022-09-06T05:51:36.994Z,42.35
2022-09-06T05:54:03.640Z,41.64
2022-09-06T05:56:30.171Z,42.26
2022-09-06T05:58:56.664Z,41.95
2022-09-06T06:01:26.673Z,41.92
2022-09-06T06:03:55.360Z,41.77
2022-09-06T06:06:22.607Z,41.46
2022-09-06T06:08:49.486Z,41.13
2022-09-06T06:11:16.615Z,41.18
2022-09-06T06:13:43.994Z,40.75
2022-09-06T06:16:12.429Z,40.40
2022-09-06T06:18:39.335Z,40.02
2022-09-06T06:21:08.986Z,40.56
2022-09-06T06:23:35.494Z,40.82
2022-09-06T06:26:02.300Z,40.90
2022-09-06T06:28:29.125Z,40.78
2022-09-06T06:30:55.738Z,40.94
2022-09-06T06:33:22.258Z,41.02
2022-09-06T06:36:03.831Z,41.70
2022-09-06T06:38:38.454Z,42.14
2022-09-06T06:41:06.961Z,41.71
2022-09-06T06:43:37.711Z,41.96
2022-09-06T06:46:12.555Z,43.13
2022-09-06T06:48:43.279Z,41.15
2022-09-06T06:51:11.361Z,40.13
2022-09-06T06:53:38.014Z,39.69
2022-09-06T06:56:21.170Z,40.57
2022-09-06T06:58:50.308Z,40.36
2022-09-06T07:01:17.657Z,40.34
2022-09-06T07:03:44.732Z,40.83
2022-09-06T07:06:12.113Z,40.89
2022-09-06T07:08:40.003Z,40.76
2022-09-06T07:11:07.787Z,40.13
2022-09-06T07:13:34.391Z,40.25
2022-09-06T07:16:07.152Z,40.89
2022-09-06T07:18:33.694Z,40.12
2022-09-06T07:26:36.240Z,39.70
2022-09-06T07:29:04.899Z,39.42
2022-09-06T07:34:20.472Z,37.07
2022-09-06T07:36:47.211Z,37.68
2022-09-06T07:39:14.169Z,37.34
2022-09-06T07:41:40.739Z,37.51
2022-09-06T07:44:08.417Z,36.73
2022-09-06T07:46:34.993Z,36.63
2022-09-06T07:49:04.338Z,36.39
2022-09-06T07:51:30.834Z,35.89
2022-09-06T07:54:19.298Z,36.13
2022-09-06T07:56:44.077Z,35.09
2022-09-06T07:59:10.604Z,35.13
2022-09-06T08:01:38.355Z,34.64
2022-09-06T08:04:07.114Z,34.45
2022-09-06T08:09:22.355Z,33.33
2022-09-06T08:11:51.010Z,32.88
2022-09-06T08:14:17.573Z,33.71
2022-09-06T08:16:44.166Z,34.02
2022-09-06T08:19:12.336Z,32.02
2022-09-06T08:21:39.291Z,31.21
2022-09-06T08:24:07.601Z,30.63
2022-09-06T08:26:36.640Z,30.68
2022-09-06T08:29:06.718Z,30.85
2022-09-06T08:31:35.346Z,30.67
2022-09-06T08:34:02.396Z,29.16
2022-09-06T08:36:30.557Z,30.14
2022-09-06T08:38:58.505Z,29.85
2022-09-06T08:41:33.420Z,29.87
2022-09-06T08:47:01.111Z,29.17
2022-09-06T08:49:31.825Z,28.25
2022-09-06T08:52:12.444Z,27.84
2022-09-06T08:55:07.394Z,28.09
2022-09-06T08:57:42.997Z,27.74
2022-09-06T09:00:12.383Z,27.17
2022-09-06T09:02:48.087Z,26.48
2022-09-06T09:05:22.412Z,27.30
2022-09-06T09:07:52.420Z,26.25
2022-09-06T09:10:40.481Z,25.76
2022-09-06T09:13:09.774Z,25.73
2022-09-06T09:15:44.601Z,24.95
2022-09-06T09:18:11.365Z,24.19
2022-09-06T09:20:38.901Z,23.53
2022-09-06T09:23:05.509Z,23.03
2022-09-06T09:25:33.551Z,22.47
2022-09-06T09:28:00.289Z,21.97
2022-09-06T09:30:49.328Z,21.39
2022-09-06T09:33:41.236Z,19.86
2022-09-06T09:36:11.379Z,16.35
2022-09-06T09:38:49.286Z,13.73
2022-09-06T09:41:30.669Z,10.40
2022-09-06T09:44:06.359Z,9.22
2022-09-06T09:46:35.323Z,9.46
2022-09-06T09:49:04.852Z,8.29
2022-09-06T09:51:33.539Z,8.71
2022-09-06T09:54:02.574Z,8.33
2022-09-06T09:56:46.091Z,5.93
2022-09-06T09:59:23.109Z,6.98
2022-09-06T10:01:49.770Z,9.01
2022-09-06T10:04:46.240Z,7.71
2022-09-06T10:07:23.010Z,8.03
2022-09-06T10:09:56.993Z,7.00
2022-09-06T10:12:35.555Z,5.33
2022-09-06T10:15:07.015Z,5.34
2022-09-06T10:17:37.709Z,5.16
2022-09-06T10:20:08.460Z,4.11
2022-09-06T10:23:06.864Z,3.31
2022-09-06T10:25:46.218Z,3.99
2022-09-06T10:28:36.806Z,4.35
2022-09-06T10:31:18.901Z,8.76
2022-09-06T10:34:14.937Z,6.85
2022-09-06T10:36:52.458Z,8.22
2022-09-06T10:39:46.000Z,6.33
2022-09-06T10:42:18.266Z,6.66
2022-09-06T10:45:09.181Z,7.71
2022-09-06T10:48:11.209Z,8.69
2022-09-06T10:50:50.054Z,6.83
2022-09-06T10:53:37.776Z,5.62
2022-09-06T10:56:16.978Z,8.34
2022-09-06T11:01:41.232Z,7.43
2022-09-06T11:04:12.729Z,7.28
2022-09-06T11:06:45.482Z,6.56
2022-09-06T11:09:16.852Z,6.10
2022-09-06T11:12:05.325Z,5.60
2022-09-06T11:14:32.281Z,4.29
2022-09-06T11:17:15.082Z,4.79
2022-09-06T11:19:51.477Z,7.67
2022-09-06T11:22:45.873Z,9.08
2022-09-06T11:25:37.290Z,5.89
2022-09-06T11:28:08.690Z,6.41
2022-09-06T11:30:35.325Z,6.18
2022-09-06T11:33:10.041Z,5.26
2022-09-06T11:35:36.642Z,4.84
2022-09-06T11:38:15.967Z,4.82
2022-09-06T11:40:48.309Z,3.98
2022-09-06T11:43:17.919Z,5.35
2022-09-06T11:45:51.132Z,6.10
2022-09-06T11:48:23.806Z,4.55
2022-09-06T11:50:59.290Z,3.86
2022-09-06T11:53:28.667Z,4.35
2022-09-06T11:55:58.255Z,4.52
2022-09-06T11:58:30.325Z,6.42
2022-09-06T12:01:12.291Z,5.17
2022-09-06T12:06:43.708Z,4.76
2022-09-06T12:09:31.383Z,5.07
2022-09-06T12:11:59.497Z,4.72
2022-09-06T12:14:46.741Z,5.58
2022-09-06T12:17:13.479Z,7.40
2022-09-06T12:19:56.458Z,9.26
2022-09-06T12:22:29.447Z,12.79
2022-09-06T12:24:59.687Z,15.15
2022-09-06T12:27:36.750Z,17.49
2022-09-06T12:30:07.906Z,17.70
2022-09-06T12:32:37.478Z,18.63
2022-09-06T12:37:58.613Z,19.35
2022-09-06T12:40:27.717Z,20.00
2022-09-06T12:42:54.479Z,20.55
2022-09-06T12:45:27.100Z,21.02
2022-09-06T12:48:09.032Z,20.42
2022-09-06T12:50:35.826Z,20.69
2022-09-06T12:53:03.891Z,20.34
2022-09-06T12:55:34.863Z,21.87
2022-09-06T12:58:07.320Z,21.11
2022-09-06T13:00:42.652Z,20.56
2022-09-06T13:03:18.168Z,20.34
2022-09-06T13:05:45.305Z,20.03
2022-09-06T13:08:22.959Z,20.25
2022-09-06T13:10:49.919Z,21.34
2022-09-06T13:13:22.977Z,22.01
2022-09-06T13:15:50.503Z,22.95
2022-09-06T13:18:33.426Z,21.98
2022-09-06T13:21:03.201Z,22.21
2022-09-06T13:23:31.163Z,22.26
2022-09-06T13:25:57.825Z,21.46
2022-09-06T13:28:26.612Z,20.33
2022-09-06T13:31:20.743Z,22.26
2022-09-06T13:33:57.704Z,21.81
2022-09-06T13:36:27.163Z,22.14
2022-09-06T13:38:54.502Z,22.43
2022-09-06T13:41:27.336Z,21.17
2022-09-06T13:44:07.951Z,23.73
2022-09-06T13:46:36.379Z,23.34
2022-09-06T13:49:03.690Z,22.43
2022-09-06T13:51:30.234Z,21.76
2022-09-06T13:54:14.267Z,22.15
2022-09-06T13:56:41.700Z,21.21
2022-09-06T13:59:12.044Z,22.56
2022-09-06T14:01:40.403Z,22.74
2022-09-06T14:04:07.205Z,21.96
2022-09-06T14:06:36.969Z,21.24
2022-09-06T14:09:08.284Z,21.56
2022-09-06T14:11:35.922Z,21.01
2022-09-06T14:14:02.635Z,20.57
2022-09-06T14:16:29.926Z,19.70
2022-09-06T14:18:56.549Z,19.41
2022-09-06T14:21:23.990Z,19.32
2022-09-06T14:23:52.169Z,19.58
2022-09-06T14:26:21.031Z,21.14
2022-09-06T14:28:47.946Z,22.24
2022-09-06T14:31:20.514Z,21.76
2022-09-06T14:33:47.992Z,21.58
2022-09-06T14:36:17.050Z,20.60
2022-09-06T14:38:44.568Z,20.81
2022-09-06T14:41:13.575Z,20.76
2022-09-06T14:43:42.852Z,19.84
2022-09-06T14:46:12.565Z,19.84
2022-09-06T14:48:42.305Z,20.00
2022-09-06T14:51:22.519Z,20.30
2022-09-06T14:53:51.972Z,20.06
2022-09-06T14:56:19.792Z,20.27
2022-09-06T14:58:46.665Z,19.93
2022-09-06T15:01:19.441Z,20.67
2022-09-06T15:03:48.567Z,21.65
2022-09-06T15:06:16.102Z,20.60
2022-09-06T15:08:42.855Z,21.48
2022-09-06T15:11:10.862Z,21.73
2022-09-06T15:13:39.005Z,20.85
2022-09-06T15:16:07.428Z,21.36
2022-09-06T15:18:34.682Z,21.15
2022-09-06T15:21:17.275Z,21.33
2022-09-06T15:23:44.092Z,21.60
2022-09-06T15:26:12.197Z,22.07
2022-09-06T15:28:40.915Z,21.55
2022-09-06T15:31:08.595Z,21.44
2022-09-06T15:33:37.015Z,21.12
2022-09-06T15:36:08.055Z,22.23
2022-09-06T15:38:48.519Z,22.21
2022-09-06T15:41:19.290Z,21.83
2022-09-06T15:43:47.837Z,22.65
2022-09-06T15:46:15.854Z,21.20
2022-09-06T15:48:47.370Z,21.68
2022-09-06T15:51:16.304Z,21.52
2022-09-06T15:53:43.177Z,22.40
2022-09-06T15:56:12.408Z,22.28
2022-09-06T15:58:39.295Z,21.49
2022-09-06T16:01:13.657Z,21.02
2022-09-06T16:03:45.492Z,21.26
2022-09-06T16:06:30.110Z,21.84
2022-09-06T16:09:02.774Z,21.67
2022-09-06T16:11:30.207Z,21.60
2022-09-06T16:13:57.072Z,21.80
2022-09-06T16:16:23.786Z,21.92
2022-09-06T16:18:52.177Z,21.93
2022-09-06T16:21:23.729Z,21.44
2022-09-06T16:23:51.661Z,22.03
2022-09-06T16:26:21.462Z,21.74
2022-09-06T16:28:50.374Z,22.04
2022-09-06T16:31:17.886Z,21.90
2022-09-06T16:33:45.787Z,21.82
2022-09-06T16:36:13.904Z,21.69
2022-09-06T16:38:41.470Z,22.02
2022-09-06T16:41:09.900Z,22.09
2022-09-06T16:43:36.836Z,22.03
2022-09-06T16:46:04.554Z,22.13
2022-09-06T16:48:31.596Z,22.06
2022-09-06T16:50:58.588Z,21.38
2022-09-06T16:53:25.182Z,22.01
2022-09-06T16:55:52.691Z,23.14
2022-09-06T16:58:19.392Z,23.08
2022-09-06T17:00:45.974Z,24.06
2022-09-06T17:03:14.114Z,23.70
2022-09-06T17:05:41.301Z,24.30
2022-09-06T17:08:08.353Z,25.27
2022-09-06T17:10:38.299Z,25.12
2022-09-06T17:13:04.882Z,25.58
2022-09-06T17:15:51.389Z,25.57
2022-09-06T17:18:17.991Z,26.20
2022-09-06T17:20:55.249Z,26.92
2022-09-06T17:23:21.808Z,27.17
2022-09-06T17:25:48.512Z,26.75
2022-09-06T17:28:15.404Z,28.03
2022-09-06T17:30:42.002Z,27.60
2022-09-06T17:33:08.764Z,26.91
2022-09-06T17:35:35.290Z,27.64
2022-09-06T17:38:01.999Z,27.43
2022-09-06T17:40:28.559Z,27.98
2022-09-06T17:42:55.574Z,27.77
2022-09-06T17:45:22.229Z,27.24
2022-09-06T17:47:49.078Z,27.80
2022-09-06T17:50:17.493Z,27.73
2022-09-06T17:52:44.107Z,28.19
2022-09-06T17:55:10.693Z,28.25
2022-09-06T17:57:37.289Z,28.31
2022-09-06T18:00:04.560Z,28.73
2022-09-06T18:02:31.103Z,28.92
2022-09-06T18:04:57.791Z,28.27
2022-09-06T18:07:24.411Z,29.01
2022-09-06T18:09:50.987Z,29.33
2022-09-06T18:12:19.464Z,29.47
2022-09-06T18:14:46.033Z,29.58
2022-09-06T18:17:12.646Z,29.97
2022-09-06T18:19:39.251Z,29.72
2022-09-06T18:22:05.941Z,28.98
2022-09-06T18:24:33.051Z,28.94
2022-09-06T18:26:59.765Z,29.10
2022-09-06T18:29:26.583Z,29.63
2022-09-06T18:31:54.075Z,29.45
2022-09-06T18:34:21.021Z,30.14
2022-09-06T18:36:47.582Z,30.45
2022-09-06T18:39:14.255Z,30.09
2022-09-06T18:41:59.150Z,30.61
2022-09-06T18:44:35.502Z,31.17
2022-09-06T18:47:05.595Z,31.18
2022-09-06T18:49:33.729Z,30.76
2022-09-06T18:52:04.768Z,30.28
2022-09-06T18:54:32.296Z,30.48
2022-09-06T18:56:59.388Z,30.53
2022-09-06T18:59:26.205Z,30.78
2022-09-06T19:01:53.088Z,30.86
2022-09-06T19:04:19.813Z,31.02
2022-09-06T19:06:46.831Z,31.21
2022-09-06T19:09:15.650Z,31.30
2022-09-06T19:11:43.448Z,31.30
2022-09-06T19:14:10.061Z,31.88
2022-09-06T19:16:36.669Z,31.62
2022-09-06T19:19:08.330Z,32.03
2022-09-06T19:21:40.771Z,31.38
2022-09-06T19:24:10.511Z,31.73
2022-09-06T19:26:40.447Z,32.70
2022-09-06T19:29:12.368Z,33.01
2022-09-06T19:31:39.560Z,32.95
2022-09-06T19:34:06.380Z,33.81
2022-09-06T19:36:33.519Z,33.80
2022-09-06T19:39:03.955Z,34.27
2022-09-06T19:41:39.223Z,34.79
2022-09-06T19:44:08.372Z,34.74
2022-09-06T19:46:35.885Z,34.31
2022-09-06T19:49:02.635Z,34.70
2022-09-06T19:51:29.485Z,34.08
2022-09-06T19:54:00.073Z,34.46
2022-09-06T19:56:31.547Z,34.45
2022-09-06T19:58:59.534Z,33.98
2022-09-06T20:01:29.283Z,33.88
2022-09-06T20:03:56.833Z,34.38
2022-09-06T20:06:23.539Z,34.36
2022-09-06T20:08:52.210Z,34.06
2022-09-06T20:11:20.176Z,34.34
2022-09-06T20:13:46.811Z,34.39
2022-09-06T20:16:14.318Z,34.25
2022-09-06T20:18:41.292Z,34.90
2022-09-06T20:21:08.410Z,34.48
2022-09-06T20:23:36.113Z,34.77
2022-09-06T20:26:07.978Z,35.85
2022-09-06T20:28:35.346Z,35.74
2022-09-06T20:31:06.969Z,35.80
2022-09-06T20:33:34.308Z,35.30
2022-09-06T20:36:03.722Z,35.13
2022-09-06T20:38:36.935Z,35.52
2022-09-06T20:41:06.389Z,35.27
2022-09-06T20:43:36.425Z,35.99
2022-09-06T20:46:08.881Z,35.67
2022-09-06T20:48:43.642Z,35.22
2022-09-06T20:51:15.842Z,34.96
2022-09-06T20:53:42.676Z,35.73
2022-09-06T20:56:14.356Z,35.97
2022-09-06T20:58:41.271Z,36.76
2022-09-06T21:01:15.453Z,35.97
2022-09-06T21:03:42.693Z,35.91
2022-09-06T21:06:10.753Z,36.08
2022-09-06T21:08:40.706Z,36.73
2022-09-06T21:11:09.778Z,36.69
2022-09-06T21:13:36.640Z,35.61
2022-09-06T21:16:04.071Z,35.08
2022-09-06T21:18:31.708Z,35.27
2022-09-06T21:21:05.619Z,35.31
2022-09-06T21:23:35.474Z,35.33
2022-09-06T21:26:07.046Z,34.81
2022-09-06T21:28:35.383Z,34.69
2022-09-06T21:31:04.329Z,34.38
2022-09-06T21:33:32.328Z,34.53
2022-09-06T21:36:02.803Z,33.88
2022-09-06T21:38:31.249Z,34.10
2022-09-06T21:40:58.355Z,34.63
2022-09-06T21:43:25.399Z,34.62
2022-09-06T21:45:52.395Z,34.99
2022-09-06T21:48:19.485Z,35.29
2022-09-06T21:50:47.882Z,36.71
2022-09-06T21:53:15.238Z,36.82
2022-09-06T21:55:42.100Z,35.58
2022-09-06T21:58:09.161Z,35.96
2022-09-06T22:00:36.663Z,36.00
2022-09-06T22:03:03.992Z,35.74
2022-09-06T22:05:30.867Z,35.48
2022-09-06T22:07:57.465Z,35.19
2022-09-06T22:10:24.653Z,35.42
2022-09-06T22:12:51.357Z,35.12
2022-09-06T22:15:19.101Z,34.87
2022-09-06T22:17:45.750Z,35.15
2022-09-06T22:20:12.618Z,35.20
2022-09-06T22:22:39.223Z,35.15
2022-09-06T22:25:06.752Z,34.71
2022-09-06T22:27:33.316Z,34.25
2022-09-06T22:29:59.818Z,34.06
2022-09-06T22:32:26.460Z,33.64
2022-09-06T22:34:53.008Z,33.69
2022-09-06T22:37:20.141Z,34.31
2022-09-06T22:39:48.029Z,33.51
2022-09-06T22:42:14.692Z,33.40
2022-09-06T22:44:41.222Z,32.92
2022-09-06T22:47:07.789Z,32.53
2022-09-06T22:49:34.366Z,33.11
2022-09-06T22:52:01.421Z,32.92
2022-09-06T22:54:28.851Z,33.36
2022-09-06T22:56:55.639Z,33.26
2022-09-06T22:59:22.414Z,33.69
2022-09-06T23:01:49.022Z,33.59
2022-09-06T23:04:15.701Z,33.02
2022-09-06T23:06:42.302Z,32.74
2022-09-06T23:09:08.864Z,32.84
2022-09-06T23:11:35.806Z,32.26
2022-09-06T23:14:02.973Z,32.67
2022-09-06T23:16:29.768Z,31.92
2022-09-06T23:18:56.702Z,31.98
2022-09-06T23:21:24.450Z,32.01
2022-09-06T23:23:52.719Z,32.02
2022-09-06T23:26:25.610Z,32.31
2022-09-06T23:28:56.478Z,32.38
2022-09-06T23:31:25.554Z,32.70
2022-09-06T23:33:57.238Z,33.24
2022-09-06T23:36:24.019Z,33.81
2022-09-06T23:38:50.662Z,33.98
2022-09-06T23:41:17.774Z,34.33
2022-09-06T23:43:44.602Z,33.37
2022-09-06T23:46:12.783Z,35.63
2022-09-06T23:48:39.420Z,34.92
2022-09-06T23:51:06.078Z,35.52
2022-09-06T23:53:33.010Z,35.00
2022-09-06T23:55:59.755Z,34.23
2022-09-06T23:58:26.413Z,33.09
